Rochester, MN

9:58 AM CDT on October 25, 2014 (GMT -0500)
Slatterly Park | Change Station
CLOSE
Current Station
Personal Weather Station
Location: Rochester, MN
Elevation: 1055 ft
Nearby Weather Stations

Elev 1055 ft 44.01 °N, 92.45 °W | Updated 1 second ago

Clear
Clear
56.5 °F
Feels Like 56.5 °F
N
3.4
Wind Variable Wind from West
Gusts 4.0 mph

Today
High -- | Low -- °F
--% Chance of Precip.
Yesterday
High -- | Low -- °F
Precip. -- in
7:37 AM 6:09 PM
Waxing Crescent, 3% visible
Pressure 30.05 in
Visibility 10.0 miles
Clouds Clear
Dew Point 42 °F
Humidity 58%
Rainfall 0.00 in
Snow Depth Not available.
UV 2 out of 12
Pollen 2.10 out of 12
Air Quality Not available.
Flu Activity Sporadic
METAR K9MN 251454Z AUTO 30010KT 280V340 10SM CLR 12/03 A3005 RMK AO1 T01220028

More Conditions Fewer Conditions

Pressure 30.05 in
Visibility 10.0 miles
Clouds Clear
Dew Point 42 °F
Humidity 58%
Rainfall 0.00 in
Snow Depth Not available.
UV 2 out of 12
Pollen 2.10 out of 12
Air Quality Not available.
Flu Activity Sporadic
METAR K9MN 251454Z AUTO 30010KT 280V340 10SM CLR 12/03 A3005 RMK AO1 T01220028

More Conditions Fewer Conditions

10-Day Weather Forecast

Almanac

Astronomy

Oct. 25, 2014 Rise Set
Actual Time 7:37 AM CDT 6:09 PM CDT
Civil Twilight 7:07 AM CDT 6:39 PM CDT
Nautical Twilight 6:33 AM CDT 7:13 PM CDT
Astronomical Twilight 6:00 AM CDT 7:46 PM CDT
Moon 9:19 AM CDT 7:30 PM CDT
Length of Visible Light 11h 31m
Length of Day
10h 32m
Tomorrow will be 2m 48s shorter.
Waxing Crescent, 3% of the Moon is Illuminated
Today
Waxing Crescent
Oct 30
First Quarter
Nov 6
Full
Nov 14
Last Quarter
Nov 22
New

Today's Extremes

State Highs State Lows

Community

WunderPhotos

Upload Photos

1,764,861 photos uploaded!

Nearby

Snow Depth

Station Depth Elevation
No new snow has been reported.

Earthquake Activity

City Distance Mag. Time & Date
No recent earthquake activity has been reported nearby.
Minimum magnitude displayed is 2.5.

Coastal Water Temperatures

Place Temperature
No Stations Reporting

Nearby Weather Stations